Time;durP1;ratioP1;P1;durP2;ratioP2;P2;SDS_P1;SDS_P2;PMS_P1;PMS_P2;Temp;Humidity;BMP_temperature;BMP_pressure;BME280_temperature;BME280_humidity;BME280_pressure;Samples;Min_cycle;Max_cycle;Signal;HPM_P1;HPM_P2
2022/09/12 00:00:10;;;;;;;12.40;7.63;;;;;;;-140.72;100.00;52583.63;5100802;28;20077;-64
2022/09/12 00:02:35;;;;;;;9.32;6.90;;;;;;;-140.72;100.00;52549.13;5106518;27;20445;-65
2022/09/12 00:05:01;;;;;;;11.40;6.40;;;;;;;-140.72;100.00;52569.44;5105908;28;20081;-64
2022/09/12 00:07:26;;;;;;;9.23;6.72;;;;;;;-140.72;100.00;52597.84;5103559;27;20452;-64
2022/09/12 00:09:51;;;;;;;10.85;6.47;;;;;;;-140.72;100.00;52597.84;5098574;27;20042;-65
2022/09/12 00:12:17;;;;;;;12.20;7.50;;;;;;;-140.72;100.00;52636.38;5095025;27;20019;-64
2022/09/12 00:14:42;;;;;;;8.52;6.03;;;;;;;-140.72;100.00;52605.94;5100087;28;20454;-64
2022/09/12 00:17:08;;;;;;;11.75;7.72;;;;;;;-140.72;100.00;52573.50;5100909;28;20019;-64
2022/09/12 00:19:33;;;;;;;9.10;6.32;;;;;;;-140.72;100.00;52610.00;5093639;28;20450;-63
2022/09/12 00:21:59;;;;;;;10.27;8.30;;;;;;;-140.72;100.00;52591.75;5101019;28;20036;-64
2022/09/12 00:24:24;;;;;;;9.38;6.95;;;;;;;-140.72;100.00;52577.53;5096156;27;20016;-64
2022/09/12 00:26:50;;;;;;;9.45;6.93;;;;;;;-140.72;100.00;52622.19;5102473;28;20051;-64
2022/09/12 00:29:17;;;;;;;10.02;7.05;;;;;;;-140.72;100.00;52624.22;5100779;27;20026;-64
2022/09/12 00:31:43;;;;;;;8.05;6.43;;;;;;;-140.72;100.00;52612.03;5123234;27;20015;-64
2022/09/12 00:34:08;;;;;;;8.60;7.30;;;;;;;-140.72;100.00;52634.38;5099699;27;20023;-64
2022/09/12 00:36:35;;;;;;;9.38;7.35;;;;;;;-140.72;100.00;52616.09;5100149;28;20620;-64
2022/09/12 00:39:01;;;;;;;10.23;6.95;;;;;;;-140.72;100.00;52585.66;5120473;27;20023;-66
2022/09/12 00:41:32;;;;;;;9.68;7.25;;;;;;;-140.72;100.00;52620.16;5112204;28;20490;-64
2022/09/12 00:44:22;;;;;;;9.85;8.13;;;;;;;-140.72;100.00;52622.19;5096176;28;20030;-64
2022/09/12 00:46:53;;;;;;;11.50;8.05;;;;;;;-140.72;100.00;52610.00;5103853;27;20035;-64
2022/09/12 00:49:24;;;;;;;11.23;8.87;;;;;;;-140.72;100.00;52561.31;5102997;27;20043;-65
2022/09/12 00:51:56;;;;;;;11.30;7.63;;;;;;;-140.72;100.00;52577.53;5105127;27;20032;-64
2022/09/12 00:54:27;;;;;;;8.23;7.03;;;;;;;-140.72;100.00;52605.94;5101790;28;20028;-64
2022/09/12 00:56:57;;;;;;;11.18;7.43;;;;;;;-140.72;100.00;52607.97;5102381;27;20040;-64
2022/09/12 00:59:31;;;;;;;9.48;7.85;;;;;;;-140.72;100.00;52565.38;5101053;27;20054;-64
2022/09/12 01:01:57;;;;;;;10.57;7.55;;;;;;;-140.72;100.00;52577.53;5098962;28;20338;-64
2022/09/12 01:04:25;;;;;;;9.95;7.35;;;;;;;-140.72;100.00;52597.84;5101338;27;20031;-64
2022/09/12 01:06:51;;;;;;;11.20;9.40;;;;;;;-140.72;100.00;52575.50;5099571;28;20469;-64
2022/09/12 01:09:20;;;;;;;10.82;7.82;;;;;;;-140.72;100.00;52610.00;5102593;27;20026;-63
2022/09/12 01:11:47;;;;;;;8.33;6.67;;;;;;;-140.72;100.00;52589.72;5097500;28;20126;-64
2022/09/12 01:14:14;;;;;;;11.50;7.57;;;;;;;-140.72;100.00;52614.06;5098442;27;20012;-64
2022/09/12 01:16:40;;;;;;;11.15;7.80;;;;;;;-140.72;100.00;52616.09;5097787;27;20102;-65
2022/09/12 01:19:30;;;;;;;8.85;7.25;;;;;;;-140.72;100.00;52583.63;5098219;27;20111;-64
2022/09/12 01:22:26;;;;;;;9.95;7.28;;;;;;;-140.72;100.00;52561.31;5092169;28;20056;-65
2022/09/12 01:25:13;;;;;;;8.20;6.60;;;;;;;-140.72;100.00;52593.78;5096596;28;20020;-64
2022/09/12 01:28:01;;;;;;;11.23;7.82;;;;;;;-140.72;100.00;52587.69;5097861;28;20483;-64
2022/09/12 01:30:32;;;;;;;7.45;6.55;;;;;;;-140.72;100.00;52589.72;5098727;27;20016;-64
2022/09/12 01:33:28;;;;;;;12.68;7.15;;;;;;;-140.72;100.00;52589.72;5094648;27;20575;-64
2022/09/12 01:36:06;;;;;;;9.38;6.63;;;;;;;-140.72;100.00;52575.50;5099138;28;20032;-64
2022/09/12 01:38:42;;;;;;;10.57;7.57;;;;;;;-140.72;100.00;52601.91;5096250;27;20398;-64
2022/09/12 01:41:14;;;;;;;10.10;7.30;;;;;;;-140.72;100.00;52654.66;5098670;28;20111;-64
2022/09/12 01:43:40;;;;;;;9.98;7.45;;;;;;;-140.72;100.00;52612.03;5099730;28;20347;-64
2022/09/12 01:46:14;;;;;;;10.20;7.85;;;;;;;-140.72;100.00;52610.00;5101256;28;20031;-65
2022/09/12 01:48:44;;;;;;;9.07;6.93;;;;;;;-140.72;100.00;52610.00;5096925;28;20411;-64
2022/09/12 01:51:20;;;;;;;9.10;6.72;;;;;;;-140.72;100.00;52634.38;5099268;27;20506;-64
2022/09/12 01:53:54;;;;;;;8.52;7.05;;;;;;;-140.72;100.00;52601.91;5093566;28;20112;-64
2022/09/12 01:56:29;;;;;;;11.77;7.72;;;;;;;-140.72;100.00;52628.28;5095476;28;20019;-64
2022/09/12 01:59:04;;;;;;;8.25;5.80;;;;;;;-140.72;100.00;52622.19;5097093;28;20027;-64
2022/09/12 02:01:35;;;;;;;10.80;7.68;;;;;;;-140.72;100.00;52589.72;5101136;27;20527;-65
2022/09/12 02:04:13;;;;;;;10.63;6.93;;;;;;;-140.72;100.00;52605.94;5096045;28;20069;-64
2022/09/12 02:06:54;;;;;;;8.65;7.45;;;;;;;-140.72;100.00;52585.66;5098410;27;20399;-63
2022/09/12 02:09:25;;;;;;;9.18;7.03;;;;;;;-140.72;100.00;52593.78;5099559;27;20062;-65
2022/09/12 02:11:54;;;;;;;12.77;8.38;;;;;;;-140.72;100.00;52581.59;5099213;28;20507;-64
2022/09/12 02:14:27;;;;;;;8.90;6.93;;;;;;;-140.72;100.00;52652.63;5094338;28;20111;-64
2022/09/12 02:17:01;;;;;;;10.75;7.65;;;;;;;-140.72;100.00;52610.00;5096800;27;20027;-65
2022/09/12 02:19:36;;;;;;;16.92;7.15;;;;;;;-140.72;100.00;52620.16;5106248;28;20103;-64
2022/09/12 02:22:03;;;;;;;12.60;7.25;;;;;;;-140.72;100.00;52644.50;5104421;28;20023;-64
2022/09/12 02:24:35;;;;;;;10.60;6.63;;;;;;;-140.72;100.00;52601.91;5099209;28;20205;-64
2022/09/12 02:27:38;;;;;;;9.45;6.22;;;;;;;-140.72;100.00;52622.19;5103516;28;20020;-65
2022/09/12 02:30:07;;;;;;;9.98;7.28;;;;;;;-140.72;100.00;52626.25;5095440;28;20188;-64
2022/09/12 02:32:43;;;;;;;7.82;5.38;;;;;;;-140.72;100.00;52601.91;5093486;28;20027;-65
2022/09/12 02:35:27;;;;;;;9.73;7.05;;;;;;;-140.72;100.00;52628.28;5093016;28;20019;-65
2022/09/12 02:38:25;;;;;;;7.57;6.22;;;;;;;-140.72;100.00;52630.31;5097067;28;20076;-65
2022/09/12 02:40:51;;;;;;;8.30;5.90;;;;;;;-140.72;100.00;52650.59;5093042;28;20023;-64
2022/09/12 02:43:16;;;;;;;11.00;6.32;;;;;;;-140.72;100.00;52650.59;5099122;28;20065;-65
2022/09/12 02:45:41;;;;;;;8.93;6.45;;;;;;;-140.72;100.00;52664.81;5099559;28;20016;-65
2022/09/12 02:48:12;;;;;;;11.68;6.40;;;;;;;-140.72;100.00;52638.41;5098078;28;20415;-66
2022/09/12 02:50:38;;;;;;;12.35;7.65;;;;;;;-140.72;100.00;52601.91;5095979;27;20024;-64
2022/09/12 02:53:05;;;;;;;8.48;6.03;;;;;;;-140.72;100.00;52575.50;5097022;27;20034;-64
2022/09/12 02:55:33;;;;;;;9.90;7.03;;;;;;;-140.72;100.00;52599.88;5098970;27;20046;-64
2022/09/12 02:58:01;;;;;;;12.10;6.30;;;;;;;-140.72;100.00;52589.72;5099161;28;20051;-64
2022/09/12 03:00:33;;;;;;;7.95;7.15;;;;;;;-140.72;100.00;52599.88;5098569;27;20131;-63
2022/09/12 03:03:24;;;;;;;11.07;7.40;;;;;;;-140.72;100.00;52614.06;5099151;28;20019;-64
2022/09/12 03:05:57;;;;;;;9.65;7.22;;;;;;;-140.72;100.00;52642.47;5105096;27;20047;-64
2022/09/12 03:08:40;;;;;;;9.80;7.20;;;;;;;-140.72;100.00;52563.34;5091187;27;20098;-64
2022/09/12 03:11:12;;;;;;;10.27;6.68;;;;;;;-140.72;100.00;52559.28;5099857;28;20055;-64
2022/09/12 03:14:09;;;;;;;11.20;7.80;;;;;;;-140.72;100.00;52616.09;5094276;28;20075;-64
2022/09/12 03:17:12;;;;;;;10.25;7.57;;;;;;;-140.72;100.00;52605.94;5099833;28;20019;-64
2022/09/12 03:20:00;;;;;;;19.65;7.53;;;;;;;-140.72;100.00;52626.25;5091023;28;20385;-65
2022/09/12 03:22:47;;;;;;;11.02;6.53;;;;;;;-140.72;100.00;52624.22;5090886;27;20415;-63
2022/09/12 03:25:15;;;;;;;10.52;6.80;;;;;;;-140.72;100.00;52624.22;5099528;28;20088;-64
2022/09/12 03:27:52;;;;;;;9.80;7.43;;;;;;;-140.72;100.00;52575.50;5094246;28;20016;-65
2022/09/12 03:30:17;;;;;;;10.25;7.45;;;;;;;-140.72;100.00;52595.81;5092618;28;20020;-63
2022/09/12 03:32:44;;;;;;;10.52;7.18;;;;;;;-140.72;100.00;52607.97;5104587;28;20023;-64
2022/09/12 03:35:10;;;;;;;11.02;7.30;;;;;;;-140.72;100.00;52612.03;5100823;28;20051;-64
2022/09/12 03:37:36;;;;;;;10.57;7.82;;;;;;;-140.72;100.00;52569.44;5103374;28;20027;-64
2022/09/12 03:40:03;;;;;;;13.48;7.80;;;;;;;-140.72;100.00;52563.34;5103260;28;20342;-64
2022/09/12 03:42:29;;;;;;;9.88;6.63;;;;;;;-140.72;100.00;52626.25;5101077;27;20023;-65
2022/09/12 03:44:54;;;;;;;11.18;6.25;;;;;;;-140.72;100.00;52567.41;5105000;28;20020;-64
2022/09/12 03:47:19;;;;;;;8.10;6.07;;;;;;;-140.72;100.00;52618.13;5096384;27;20377;-64
2022/09/12 03:49:45;;;;;;;10.77;6.90;;;;;;;-140.72;100.00;52614.06;5095810;28;20043;-64
2022/09/12 03:52:11;;;;;;;8.57;5.63;;;;;;;-140.72;100.00;52610.00;5102761;27;20099;-64
2022/09/12 03:54:36;;;;;;;11.90;7.43;;;;;;;-140.72;100.00;52601.91;5108865;28;20108;-64
2022/09/12 03:57:01;;;;;;;9.70;6.82;;;;;;;-140.72;100.00;52601.91;5106926;27;20023;-64
2022/09/12 03:59:27;;;;;;;10.82;6.97;;;;;;;-140.72;100.00;52636.38;5100107;28;20036;-65
2022/09/12 04:01:52;;;;;;;11.02;6.93;;;;;;;-140.72;100.00;52630.31;5103599;27;20746;-63
2022/09/12 04:04:17;;;;;;;10.65;7.25;;;;;;;-140.72;100.00;52618.13;5102587;27;20016;-64
2022/09/12 04:06:43;;;;;;;10.63;7.95;;;;;;;-140.72;100.00;52630.31;5110800;27;20431;-65
2022/09/12 04:09:08;;;;;;;12.20;7.47;;;;;;;-140.72;100.00;52591.75;5096759;27;20438;-63
2022/09/12 04:11:34;;;;;;;9.38;6.75;;;;;;;-140.72;100.00;52632.34;5104823;27;20466;-65
2022/09/12 04:14:00;;;;;;;8.45;7.18;;;;;;;-140.72;100.00;52622.19;5098396;27;20070;-64
2022/09/12 04:16:25;;;;;;;9.50;7.35;;;;;;;-140.72;100.00;52601.91;5098701;28;20461;-65
2022/09/12 04:18:50;;;;;;;11.32;7.90;;;;;;;-140.72;100.00;52630.31;5098804;28;20131;-64
2022/09/12 04:21:18;;;;;;;10.43;7.57;;;;;;;-140.72;100.00;52585.66;5097158;27;20099;-64
2022/09/12 04:23:44;;;;;;;9.63;7.55;;;;;;;-140.72;100.00;52614.06;5094648;27;20043;-64
2022/09/12 04:26:12;;;;;;;11.35;7.10;;;;;;;-140.72;100.00;52634.38;5102196;27;20107;-64
2022/09/12 04:28:37;;;;;;;11.75;7.65;;;;;;;-140.72;100.00;52614.06;5110387;28;20031;-65
2022/09/12 04:31:06;;;;;;;9.32;6.63;;;;;;;-140.72;100.00;52640.44;5111483;28;20480;-64
2022/09/12 04:33:33;;;;;;;10.82;7.75;;;;;;;-140.72;100.00;52640.44;5111487;28;20020;-64
2022/09/12 04:36:07;;;;;;;9.18;7.28;;;;;;;-140.72;100.00;52644.50;5102072;28;20031;-65
2022/09/12 04:38:34;;;;;;;13.05;7.53;;;;;;;-140.72;100.00;52610.00;5096251;28;20070;-64
2022/09/12 04:41:00;;;;;;;10.95;7.80;;;;;;;-140.72;100.00;52644.50;5111084;28;20016;-65
2022/09/12 04:43:25;;;;;;;9.70;6.38;;;;;;;-140.72;100.00;52603.94;5104729;27;20027;-64
2022/09/12 04:45:51;;;;;;;10.95;7.35;;;;;;;-140.72;100.00;52632.34;5096727;28;20470;-65
2022/09/12 04:48:16;;;;;;;12.57;8.27;;;;;;;-140.72;100.00;52614.06;5092765;28;20074;-64
2022/09/12 04:50:42;;;;;;;10.32;7.25;;;;;;;-140.72;100.00;52622.19;5100763;27;20409;-64
2022/09/12 04:53:08;;;;;;;10.20;7.10;;;;;;;-140.72;100.00;52679.00;5110652;28;20019;-63
2022/09/12 04:55:34;;;;;;;13.35;8.10;;;;;;;-140.72;100.00;52664.81;5107563;27;20493;-63
2022/09/12 04:58:00;;;;;;;13.82;9.38;;;;;;;-140.72;100.00;52628.28;5106106;28;20081;-64
2022/09/12 05:00:25;;;;;;;12.48;8.80;;;;;;;-140.72;100.00;52642.47;5113265;27;20271;-64
2022/09/12 05:02:51;;;;;;;12.68;8.32;;;;;;;-140.72;100.00;52618.13;5112411;28;20027;-63
2022/09/12 05:05:16;;;;;;;10.82;8.85;;;;;;;-140.72;100.00;52640.44;5113870;27;20068;-63
2022/09/12 05:07:42;;;;;;;12.48;9.15;;;;;;;-140.72;100.00;52666.84;5105354;27;20103;-63
2022/09/12 05:10:08;;;;;;;12.35;8.63;;;;;;;-140.72;100.00;52638.41;5097605;28;20039;-63
2022/09/12 05:12:33;;;;;;;12.50;8.10;;;;;;;-140.72;100.00;52646.53;5101729;28;20024;-64
2022/09/12 05:14:58;;;;;;;14.43;9.98;;;;;;;-140.72;100.00;52654.66;5092588;27;20275;-63
2022/09/12 05:17:24;;;;;;;14.05;10.10;;;;;;;-140.72;100.00;52634.38;5113585;27;20536;-64
2022/09/12 05:19:49;;;;;;;12.27;8.80;;;;;;;-140.72;100.00;52660.75;5110835;28;20035;-63
2022/09/12 05:22:15;;;;;;;15.77;9.07;;;;;;;-140.72;100.00;52632.34;5102829;28;20045;-64
2022/09/12 05:24:42;;;;;;;15.48;8.45;;;;;;;-140.72;100.00;52654.66;5108661;28;20065;-64
2022/09/12 05:27:08;;;;;;;15.27;8.73;;;;;;;-140.72;100.00;52642.47;5109629;28;20173;-64
2022/09/12 05:29:34;;;;;;;13.20;9.32;;;;;;;-140.72;100.00;52662.78;5104683;27;20456;-64
2022/09/12 05:31:59;;;;;;;15.20;8.73;;;;;;;-140.72;100.00;52636.38;5095910;27;20031;-64
2022/09/12 05:34:26;;;;;;;11.23;7.05;;;;;;;-140.72;100.00;52646.53;5096785;28;20165;-64
2022/09/12 05:36:52;;;;;;;14.23;10.32;;;;;;;-140.72;100.00;52650.59;5114191;27;20027;-64
2022/09/12 05:39:17;;;;;;;12.30;8.07;;;;;;;-140.72;100.00;52687.13;5109932;28;20465;-64
2022/09/12 05:41:43;;;;;;;13.82;8.63;;;;;;;-140.72;100.00;52628.28;5100404;28;20027;-64
2022/09/12 05:44:13;;;;;;;17.23;9.10;;;;;;;-140.72;100.00;52660.75;5095736;28;20024;-63
2022/09/12 05:46:44;;;;;;;11.73;8.13;;;;;;;-140.72;100.00;52658.72;5096609;28;20024;-63
2022/09/12 05:49:12;;;;;;;17.63;9.80;;;;;;;-140.72;100.00;52630.31;5115022;27;20042;-64
2022/09/12 05:51:41;;;;;;;14.30;9.43;;;;;;;-140.72;100.00;52650.59;5110973;27;20052;-63
2022/09/12 05:54:09;;;;;;;12.13;7.85;;;;;;;-140.72;100.00;52687.13;5097716;28;20365;-63
2022/09/12 05:56:40;;;;;;;11.02;7.50;;;;;;;-140.72;100.00;52634.38;5103805;28;20107;-63
2022/09/12 05:59:11;;;;;;;11.48;8.02;;;;;;;-140.72;100.00;52652.63;5105023;27;20123;-64
2022/09/12 06:01:36;;;;;;;11.85;8.32;;;;;;;-140.72;100.00;52674.94;5102767;27;20092;-63
2022/09/12 06:04:05;;;;;;;15.15;8.38;;;;;;;-140.72;100.00;52662.78;5095153;27;20057;-64
2022/09/12 06:06:33;;;;;;;12.32;9.13;;;;;;;-140.72;100.00;52644.50;5098510;28;20458;-63
2022/09/12 06:09:01;;;;;;;7.88;5.97;;;;;;;-140.72;100.00;52654.66;5104378;27;20107;-63
2022/09/12 06:11:30;;;;;;;10.38;8.02;;;;;;;-140.72;100.00;52672.91;5111686;27;20110;-63
2022/09/12 06:13:57;;;;;;;16.88;8.77;;;;;;;-140.72;100.00;52642.47;5100762;28;20028;-63
2022/09/12 06:16:25;;;;;;;11.48;7.70;;;;;;;-140.72;100.00;52644.50;5104253;27;20492;-63
2022/09/12 06:18:53;;;;;;;13.25;9.25;;;;;;;-140.72;100.00;52664.81;5097623;27;20085;-63
2022/09/12 06:21:19;;;;;;;11.90;7.63;;;;;;;-140.72;100.00;52646.53;5110067;28;20020;-63
2022/09/12 06:23:45;;;;;;;14.63;10.10;;;;;;;-140.72;100.00;52607.97;5106797;28;20537;-63
2022/09/12 06:26:12;;;;;;;14.88;8.52;;;;;;;-140.72;100.00;52624.22;5103087;27;20452;-65
2022/09/12 06:28:39;;;;;;;11.63;7.78;;;;;;;-140.72;100.00;52666.84;5097668;27;20073;-64
2022/09/12 06:31:10;;;;;;;14.48;10.20;;;;;;;-140.72;100.00;52626.25;5098117;28;20085;-64
2022/09/12 06:33:39;;;;;;;13.70;10.77;;;;;;;-140.72;100.00;52610.00;5109231;28;20027;-63
2022/09/12 06:36:22;;;;;;;19.10;10.25;;;;;;;-140.72;100.00;52638.41;5113693;27;20023;-63
2022/09/12 06:38:56;;;;;;;15.13;10.93;;;;;;;-140.72;100.00;52605.94;5096785;27;20513;-64
2022/09/12 06:41:23;;;;;;;17.05;10.98;;;;;;;-140.72;100.00;52595.81;5089328;28;20112;-64
2022/09/12 06:43:49;;;;;;;15.43;10.98;;;;;;;-140.72;100.00;52634.38;5108997;28;20027;-63
2022/09/12 06:46:14;;;;;;;18.52;10.52;;;;;;;-140.72;100.00;52660.75;5109738;28;20067;-63
2022/09/12 06:48:39;;;;;;;17.70;11.68;;;;;;;-140.72;100.00;52614.06;5097220;28;20120;-62
2022/09/12 06:51:08;;;;;;;14.15;10.23;;;;;;;-140.72;100.00;52622.19;5097417;28;20023;-63
2022/09/12 06:53:38;;;;;;;16.65;11.00;;;;;;;-140.72;100.00;52595.81;5095759;28;20205;-63
2022/09/12 06:56:20;;;;;;;15.25;9.77;;;;;;;-140.72;100.00;52607.97;5110767;27;20364;-63
2022/09/12 06:58:48;;;;;;;14.82;10.80;;;;;;;-140.72;100.00;52634.38;5116053;27;20377;-64
2022/09/12 07:01:15;;;;;;;13.57;9.95;;;;;;;-140.72;100.00;52599.88;5109794;28;20038;-63
2022/09/12 07:03:45;;;;;;;14.05;9.63;;;;;;;-140.72;100.00;52601.91;5119385;27;20022;-63
2022/09/12 07:06:13;;;;;;;18.00;10.63;;;;;;;-140.72;100.00;52614.06;5106400;28;20497;-63
2022/09/12 07:08:39;;;;;;;13.52;9.93;;;;;;;-140.72;100.00;52555.22;5113273;27;20026;-63
2022/09/12 07:11:13;;;;;;;14.48;9.93;;;;;;;-140.72;100.00;52601.91;5105579;28;20043;-63
2022/09/12 07:13:40;;;;;;;13.20;9.52;;;;;;;-140.72;100.00;52612.03;5098125;28;20027;-64
2022/09/12 07:16:07;;;;;;;13.18;9.27;;;;;;;-140.72;100.00;52620.16;5099633;28;20081;-63
2022/09/12 07:18:33;;;;;;;16.92;11.48;;;;;;;-140.72;100.00;52591.75;5071344;28;20115;-63
2022/09/12 07:21:00;;;;;;;18.23;10.25;;;;;;;-140.72;100.00;52575.50;5094179;28;20047;-64
2022/09/12 07:23:26;;;;;;;18.55;10.82;;;;;;;-140.72;100.00;52610.00;5100170;28;20098;-62
2022/09/12 07:25:53;;;;;;;18.40;10.75;;;;;;;-140.72;100.00;52571.47;5104439;28;20414;-63
2022/09/12 07:28:19;;;;;;;17.38;10.35;;;;;;;-140.72;100.00;52569.44;5091765;28;20024;-63
2022/09/12 07:30:44;;;;;;;15.85;9.57;;;;;;;-140.72;100.00;52555.22;5094466;28;20484;-63
2022/09/12 07:33:09;;;;;;;18.02;10.20;;;;;;;-140.72;100.00;52557.25;5104867;28;20397;-62
2022/09/12 07:35:35;;;;;;;14.82;10.32;;;;;;;-140.72;100.00;52581.59;5093832;28;20055;-63
2022/09/12 07:38:01;;;;;;;14.15;10.30;;;;;;;-140.72;100.00;52524.78;5098133;28;20105;-62
2022/09/12 07:40:26;;;;;;;13.77;10.05;;;;;;;-140.72;100.00;52536.97;5098394;28;20263;-62
2022/09/12 07:42:52;;;;;;;17.80;10.98;;;;;;;-140.72;100.00;52543.03;5100436;28;20230;-63
2022/09/12 07:45:17;;;;;;;14.00;9.07;;;;;;;-140.72;100.00;52557.25;5101611;28;20023;-63
2022/09/12 07:47:43;;;;;;;13.77;10.05;;;;;;;-140.72;100.00;52528.84;5094119;28;20039;-63
2022/09/12 07:50:08;;;;;;;15.13;9.60;;;;;;;-140.72;100.00;52516.66;5099123;28;20040;-63
2022/09/12 07:52:34;;;;;;;13.35;9.93;;;;;;;-140.72;100.00;52534.94;5096200;28;20047;-64
2022/09/12 07:54:59;;;;;;;14.65;9.57;;;;;;;-140.72;100.00;52524.78;5097555;28;20028;-63
2022/09/12 07:57:24;;;;;;;12.68;8.23;;;;;;;-140.72;100.00;52530.88;5100936;28;20023;-63
2022/09/12 07:59:50;;;;;;;14.38;9.50;;;;;;;-140.72;100.00;52532.91;5102537;28;20093;-65
2022/09/12 08:02:15;;;;;;;13.98;9.20;;;;;;;-140.72;100.00;52528.84;5097722;28;20062;-63
2022/09/12 08:04:41;;;;;;;12.07;8.85;;;;;;;-140.72;100.00;52506.53;5096586;28;20055;-63
2022/09/12 08:07:07;;;;;;;11.43;8.48;;;;;;;-140.72;100.00;52472.03;5095328;28;20461;-62
2022/09/12 08:09:33;;;;;;;11.55;8.00;;;;;;;-140.72;100.00;52534.94;5094696;28;20075;-63
2022/09/12 08:11:58;;;;;;;13.40;8.60;;;;;;;-140.72;100.00;52530.88;5099741;28;20502;-62
2022/09/12 08:14:23;;;;;;;13.25;7.85;;;;;;;-140.72;100.00;52522.75;5099572;28;20028;-63
2022/09/12 08:16:49;;;;;;;10.95;7.90;;;;;;;-140.72;100.00;52500.44;5098904;28;20057;-63
2022/09/12 08:19:14;;;;;;;9.82;6.93;;;;;;;-140.72;100.00;52518.69;5102676;28;20031;-63
2022/09/12 08:21:39;;;;;;;11.65;7.10;;;;;;;-140.72;100.00;52476.09;5104167;28;20574;-62
2022/09/12 08:24:05;;;;;;;9.38;7.05;;;;;;;-140.72;100.00;52492.31;5105670;27;20028;-63
2022/09/12 08:26:33;;;;;;;9.00;6.85;;;;;;;-140.72;100.00;52508.56;5111070;27;20069;-63
2022/09/12 08:28:58;;;;;;;12.25;7.03;;;;;;;-140.72;100.00;52457.81;5103143;27;20058;-63
2022/09/12 08:31:25;;;;;;;9.95;5.25;;;;;;;-140.72;100.00;52476.09;5107497;27;20047;-63
2022/09/12 08:33:54;;;;;;;9.05;6.50;;;;;;;-140.72;100.00;52476.09;5099629;28;20030;-63
2022/09/12 08:36:22;;;;;;;9.32;6.25;;;;;;;-140.72;100.00;52465.94;5094297;28;20027;-63
2022/09/12 08:38:50;;;;;;;6.75;5.47;;;;;;;-140.72;100.00;52494.34;5093455;28;20081;-63
2022/09/12 08:41:29;;;;;;;8.63;5.97;;;;;;;-140.72;100.00;52437.53;5092748;28;20085;-62
2022/09/12 08:44:16;;;;;;;6.85;4.63;;;;;;;-140.72;100.00;52461.88;5104336;28;20114;-63
2022/09/12 08:46:53;;;;;;;8.52;4.82;;;;;;;-140.72;100.00;52470.00;5102240;28;20024;-63
2022/09/12 08:49:32;;;;;;;11.55;5.25;;;;;;;-140.72;100.00;52431.44;5111487;28;20368;-63
2022/09/12 08:52:04;;;;;;;7.38;4.57;;;;;;;-140.72;100.00;52461.88;5112330;28;20050;-63
2022/09/12 08:54:31;;;;;;;8.93;5.40;;;;;;;-140.72;100.00;52476.09;5101878;27;20043;-62
2022/09/12 08:57:02;;;;;;;6.47;4.85;;;;;;;-140.72;100.00;52433.47;5109515;27;20492;-69
2022/09/12 08:59:38;;;;;;;10.13;5.45;;;;;;;-140.72;100.00;52382.75;5105757;27;20023;-73
2022/09/12 09:02:17;;;;;;;6.05;4.15;;;;;;;-140.72;100.00;52407.09;5112487;27;20026;-75
2022/09/12 09:05:13;;;;;;;8.32;4.85;;;;;;;-140.72;100.00;52364.47;5095751;27;20032;-75
2022/09/12 09:07:52;;;;;;;8.00;3.58;;;;;;;-140.72;100.00;52332.03;5101404;27;20031;-73
2022/09/12 09:10:29;;;;;;;8.90;3.97;;;;;;;-140.72;100.00;52346.22;5099985;28;20030;-75
2022/09/12 09:13:03;;;;;;;5.95;4.15;;;;;;;-140.72;100.00;52309.69;5112387;27;20205;-75
2022/09/12 09:15:57;;;;;;;5.63;3.35;;;;;;;-140.72;100.00;52293.47;5112053;27;20023;-73
2022/09/12 09:18:28;;;;;;;5.40;3.55;;;;;;;-140.72;100.00;52285.34;5113071;27;20023;-76
2022/09/12 09:21:02;;;;;;;5.50;3.33;;;;;;;-140.72;100.00;52303.59;5105668;28;20023;-72
2022/09/12 09:23:32;;;;;;;5.38;3.42;;;;;;;-140.72;100.00;52281.28;5125458;27;20026;-73
2022/09/12 09:26:04;;;;;;;4.55;2.60;;;;;;;-140.72;100.00;52299.56;5103647;27;20056;-75
2022/09/12 09:28:41;;;;;;;4.25;2.80;;;;;;;-140.72;100.00;52252.88;5108765;28;20399;-73
2022/09/12 09:31:21;;;;;;;5.03;2.13;;;;;;;-140.72;0.00;52252.88;5108871;27;20271;-75
2022/09/12 09:33:50;;;;;;;2.78;1.80;;;;;;;-140.72;0.00;52267.09;5120336;27;20351;-74
2022/09/12 09:36:37;;;;;;;3.10;2.05;;;;;;;-140.72;0.00;52250.84;5113838;27;20023;-74
2022/09/12 09:39:23;;;;;;;3.22;1.60;;;;;;;-140.72;0.00;52263.03;5111004;27;20023;-73
2022/09/12 09:42:12;;;;;;;2.92;1.42;;;;;;;-140.72;0.00;52252.88;5118347;27;20059;-74
2022/09/12 09:44:37;;;;;;;2.17;1.17;;;;;;;-140.72;0.00;52254.91;5111282;28;20090;-74
2022/09/12 09:47:04;;;;;;;2.47;1.38;;;;;;;-140.72;0.00;52256.94;5105305;27;20028;-74
2022/09/12 09:49:32;;;;;;;2.55;1.33;;;;;;;-140.72;0.00;52246.78;5095890;27;20040;-75
2022/09/12 09:52:01;;;;;;;2.90;1.30;;;;;;;-140.72;0.00;52244.78;5111379;27;20031;-73
2022/09/12 09:54:34;;;;;;;4.82;1.70;;;;;;;-140.72;0.00;52208.25;5108118;27;20011;-73
2022/09/12 09:57:00;;;;;;;2.17;1.23;;;;;;;-140.72;0.00;52287.38;5110663;27;20106;-74
2022/09/12 09:59:28;;;;;;;2.95;1.55;;;;;;;-140.72;0.00;52252.88;5108635;28;20138;-63
2022/09/12 10:02:12;;;;;;;2.45;1.35;;;;;;;-140.72;0.00;52263.03;5112558;27;20139;-63
2022/09/12 10:04:40;;;;;;;2.95;1.30;;;;;;;-140.72;0.00;52246.78;5114790;27;20024;-62
2022/09/12 10:07:20;;;;;;;2.30;1.55;;;;;;;-140.72;0.00;52216.34;5105157;28;20027;-63
2022/09/12 10:10:18;;;;;;;2.22;1.23;;;;;;;-140.72;0.00;52224.47;5099665;28;20445;-63
2022/09/12 10:12:44;;;;;;;2.08;1.15;;;;;;;-140.72;0.00;52167.66;5096884;28;20016;-63
2022/09/12 10:15:22;;;;;;;2.60;1.60;;;;;;;-140.72;0.00;52206.22;5101648;27;20067;-64
2022/09/12 10:17:49;;;;;;;2.60;1.38;;;;;;;-140.72;0.00;52216.34;5117112;27;20060;-62
2022/09/12 10:20:36;;;;;;;2.25;1.42;;;;;;;-140.72;0.00;52175.78;5116722;27;20230;-63
2022/09/12 10:23:17;;;;;;;3.25;1.55;;;;;;;-140.72;0.00;52121.00;5101082;27;20061;-64
2022/09/12 10:25:46;;;;;;;3.10;1.40;;;;;;;-140.72;0.00;52159.56;5099205;28;20028;-63
2022/09/12 10:28:20;;;;;;;;;;;;;;;-140.72;0.00;52187.97;5104267;28;20015;-63
2022/09/12 10:30:52;;;;;;;3.53;1.45;;;;;;;-140.72;0.00;52228.53;5097713;28;19978;-63
2022/09/12 10:33:17;;;;;;;3.17;1.52;;;;;;;-140.72;0.00;52224.47;5101606;28;20027;-63
2022/09/12 10:35:48;;;;;;;3.25;1.40;;;;;;;-140.72;0.00;52216.34;5104474;27;20026;-64
2022/09/12 10:38:23;;;;;;;2.75;1.75;;;;;;;-140.72;0.00;52189.97;5098598;28;20024;-64
2022/09/12 10:41:02;;;;;;;2.13;1.20;;;;;;;-140.72;0.00;52200.13;5107926;28;20118;-64
2022/09/12 10:43:31;;;;;;;3.53;1.27;;;;;;;-140.72;0.00;52157.53;5112674;27;20035;-64
2022/09/12 10:45:57;;;;;;;;;;;;;;;-140.72;0.00;52139.25;5096262;28;20262;-64
2022/09/12 10:48:32;;;;;;;4.93;1.70;;;;;;;-140.72;0.00;52054.03;5090444;28;19904;-64
2022/09/12 10:50:59;;;;;;;2.83;1.73;;;;;;;-140.72;0.00;52090.56;5114290;27;20110;-63
2022/09/12 10:53:31;;;;;;;2.63;1.33;;;;;;;-140.72;0.00;52064.19;5130282;27;20027;-64
2022/09/12 10:56:08;;;;;;;1.90;0.85;;;;;;;-140.72;0.00;52005.34;5123342;27;20055;-63
2022/09/12 10:58:56;;;;;;;6.90;1.67;;;;;;;-140.72;0.00;51983.03;5110435;27;20066;-64
2022/09/12 11:01:24;;;;;;;3.38;1.23;;;;;;;-140.72;0.00;51999.25;5130665;27;20058;-63
2022/09/12 11:04:11;;;;;;;3.65;1.75;;;;;;;-140.72;0.00;51997.22;5109876;28;20030;-63
2022/09/12 11:07:01;;;;;;;2.90;1.70;;;;;;;-140.72;0.00;51989.13;5108755;28;20024;-64
2022/09/12 11:09:53;;;;;;;2.78;1.00;;;;;;;-140.72;0.00;51964.78;5122141;27;20019;-63
2022/09/12 11:12:25;;;;;;;1.85;0.98;;;;;;;-140.72;0.00;51936.38;5095188;28;20482;-64
2022/09/12 11:15:07;;;;;;;2.10;1.00;;;;;;;-140.72;0.00;51948.53;5113053;27;20034;-63
2022/09/12 11:17:59;;;;;;;1.65;0.95;;;;;;;-140.72;0.00;51978.97;5130975;27;20038;-64
2022/09/12 11:20:41;;;;;;;2.03;1.00;;;;;;;-140.72;0.00;51912.03;5099510;28;20461;-64
2022/09/12 11:23:27;;;;;;;2.25;1.40;;;;;;;-140.72;0.00;51879.56;5104081;28;20028;-64